Terminal Aerodrome Forecast
Issued by NWS

Home | Current Version | Previous Version | Text Only | Print | Product List | Glossary On
Versions: 1 2 3 4 5 6 7 8 9 10 11 12 13 14 15 16 17 18 19 20
336
FTUS44 KBMX 251727
TAFANB
TAF
KANB 251727Z 2518/2618 29008KT P6SM SCT025
     FM260900 08002KT P6SM VCSH OVC030
     FM261100 08003KT 4SM RA VCTS OVC020CB=

USA.gov is the U.S. government's official web portal to all federal, state and local government web resources and services.